createdAt,value
2019-02-05T00:00:47.093Z,7.60
2019-02-05T00:01:34.618Z,7.10
2019-02-05T00:02:13.960Z,7.20
2019-02-05T00:02:50.037Z,7.50
2019-02-05T00:03:26.237Z,6.27
2019-02-05T00:04:02.370Z,6.80
2019-02-05T00:04:38.537Z,6.90
2019-02-05T00:05:14.850Z,6.10
2019-02-05T00:05:51.149Z,6.40
2019-02-05T00:06:27.277Z,6.53
2019-02-05T00:07:03.431Z,6.73
2019-02-05T00:07:39.559Z,5.77
2019-02-05T00:08:15.713Z,6.63
2019-02-05T00:08:51.994Z,6.40
2019-02-05T00:09:28.157Z,6.20
2019-02-05T00:10:04.700Z,6.80
2019-02-05T00:10:41.026Z,7.10
2019-02-05T00:11:17.201Z,6.20
2019-02-05T00:11:53.292Z,6.90
2019-02-05T00:12:29.811Z,6.20
2019-02-05T00:13:06.065Z,6.37
2019-02-05T00:13:42.443Z,5.33
2019-02-05T00:14:18.675Z,6.00
2019-02-05T00:14:54.800Z,5.70
2019-02-05T00:15:30.935Z,6.27
2019-02-05T00:16:07.542Z,5.53
2019-02-05T00:16:43.751Z,6.10
2019-02-05T00:17:19.895Z,6.87
2019-02-05T00:17:55.960Z,5.60
2019-02-05T00:18:32.111Z,4.60
2019-02-05T00:19:09.483Z,6.07
2019-02-05T00:19:45.756Z,5.57
2019-02-05T00:20:21.947Z,5.37
2019-02-05T00:20:58.255Z,4.73
2019-02-05T00:21:34.445Z,6.60
2019-02-05T00:22:10.533Z,5.37
2019-02-05T00:22:47.088Z,6.50
2019-02-05T00:23:23.288Z,4.87
2019-02-05T00:23:59.836Z,5.30
2019-02-05T00:24:35.952Z,5.10
2019-02-05T00:25:12.201Z,5.77
2019-02-05T00:25:48.281Z,5.90
2019-02-05T00:26:24.408Z,5.87
2019-02-05T00:27:00.658Z,6.43
2019-02-05T00:27:37.000Z,5.00
2019-02-05T00:28:13.215Z,5.03
2019-02-05T00:28:49.248Z,5.23
2019-02-05T00:29:25.440Z,5.33
2019-02-05T00:30:01.548Z,6.03
2019-02-05T00:30:37.767Z,5.37
2019-02-05T00:31:13.929Z,4.90
2019-02-05T00:31:50.059Z,5.20
2019-02-05T00:32:26.201Z,4.90
2019-02-05T00:33:02.262Z,4.67
2019-02-05T00:33:38.346Z,5.07
2019-02-05T00:34:14.451Z,5.30
2019-02-05T00:34:51.454Z,5.20
2019-02-05T00:35:27.970Z,5.87
2019-02-05T00:36:04.249Z,5.17
2019-02-05T00:36:40.640Z,5.27
2019-02-05T00:37:16.872Z,5.50
2019-02-05T00:37:53.045Z,6.40
2019-02-05T00:38:29.388Z,5.33
2019-02-05T00:39:06.461Z,4.70
2019-02-05T00:39:42.517Z,5.30
2019-02-05T00:40:19.127Z,4.87
2019-02-05T00:40:55.368Z,5.70
2019-02-05T00:41:31.492Z,5.27
2019-02-05T00:42:07.750Z,4.40
2019-02-05T00:42:43.867Z,5.33
2019-02-05T00:43:20.058Z,5.63
2019-02-05T00:43:56.248Z,5.10
2019-02-05T00:44:32.602Z,4.93
2019-02-05T00:45:10.321Z,5.27
2019-02-05T00:45:46.616Z,5.10
2019-02-05T00:46:22.699Z,5.10
2019-02-05T00:46:59.096Z,5.20
2019-02-05T00:47:35.436Z,4.97
2019-02-05T00:48:11.688Z,4.73
2019-02-05T00:48:47.794Z,5.40
2019-02-05T00:49:23.945Z,5.80
2019-02-05T00:50:00.211Z,4.97
2019-02-05T00:50:36.235Z,6.13
2019-02-05T00:51:12.338Z,6.00
2019-02-05T00:51:48.455Z,4.93
2019-02-05T00:52:24.601Z,5.40
2019-02-05T00:53:00.864Z,4.97
2019-02-05T00:53:37.120Z,5.20
2019-02-05T00:54:13.442Z,5.20
2019-02-05T00:54:49.615Z,5.20
2019-02-05T00:55:25.762Z,4.97
2019-02-05T00:56:01.892Z,5.20
2019-02-05T00:56:37.960Z,4.40
2019-02-05T00:57:14.476Z,5.47
2019-02-05T00:57:50.628Z,6.20
2019-02-05T00:58:27.147Z,5.60
2019-02-05T00:59:03.339Z,4.80
2019-02-05T00:59:39.821Z,4.90
2019-02-05T01:00:32.071Z,4.53
2019-02-05T01:01:08.802Z,5.70
2019-02-05T01:01:44.949Z,4.90
2019-02-05T01:02:21.244Z,5.63
2019-02-05T01:02:57.818Z,5.10
2019-02-05T01:03:34.176Z,5.20
2019-02-05T01:04:10.691Z,4.50
2019-02-05T01:04:46.867Z,5.20
2019-02-05T01:05:23.563Z,4.40
2019-02-05T01:05:59.680Z,5.10
2019-02-05T01:06:35.956Z,5.57
2019-02-05T01:07:12.276Z,5.20
2019-02-05T01:07:48.551Z,4.77
2019-02-05T01:08:24.808Z,5.13
2019-02-05T01:09:01.155Z,4.67
2019-02-05T01:09:37.391Z,4.40
2019-02-05T01:10:13.751Z,5.10
2019-02-05T01:10:49.847Z,5.03
2019-02-05T01:11:25.956Z,4.37
2019-02-05T01:12:02.134Z,4.43
2019-02-05T01:12:38.215Z,5.47
2019-02-05T01:13:14.491Z,5.73
2019-02-05T01:13:50.706Z,4.70
2019-02-05T01:14:27.216Z,4.73
2019-02-05T01:15:03.436Z,5.57
2019-02-05T01:15:39.873Z,4.60
2019-02-05T01:16:16.076Z,5.10
2019-02-05T01:16:52.343Z,4.73
2019-02-05T01:17:28.673Z,5.30
2019-02-05T01:18:04.856Z,4.60
2019-02-05T01:18:40.958Z,4.63
2019-02-05T01:19:17.254Z,5.00
2019-02-05T01:19:53.331Z,4.80
2019-02-05T01:20:29.653Z,4.73
2019-02-05T01:21:06.069Z,5.47
2019-02-05T01:21:42.272Z,5.07
2019-02-05T01:22:18.440Z,4.27
2019-02-05T01:22:54.685Z,4.37
2019-02-05T01:23:30.862Z,5.03
2019-02-05T01:24:07.296Z,5.90
2019-02-05T01:24:43.411Z,5.30
2019-02-05T01:25:20.361Z,5.57
2019-02-05T01:25:56.772Z,5.30
2019-02-05T01:26:32.988Z,5.17
2019-02-05T01:27:09.161Z,5.00
2019-02-05T01:27:45.520Z,4.47
2019-02-05T01:28:21.729Z,4.50
2019-02-05T01:28:58.268Z,5.60
2019-02-05T01:29:34.527Z,4.90
2019-02-05T01:30:12.689Z,5.13
2019-02-05T01:30:48.928Z,4.70
2019-02-05T01:31:25.060Z,4.93
2019-02-05T01:32:01.354Z,4.43
2019-02-05T01:32:37.648Z,4.37
2019-02-05T01:33:13.966Z,4.30
2019-02-05T01:33:50.148Z,4.40
2019-02-05T01:34:26.407Z,4.90
2019-02-05T01:35:02.601Z,4.87
2019-02-05T01:35:38.887Z,4.83
2019-02-05T01:36:15.342Z,4.33
2019-02-05T01:36:51.793Z,4.20
2019-02-05T01:37:27.829Z,4.70
2019-02-05T01:38:04.063Z,5.37
2019-02-05T01:38:40.250Z,4.63
2019-02-05T01:39:16.505Z,5.77
2019-02-05T01:39:52.827Z,5.10
2019-02-05T01:40:28.938Z,4.70
2019-02-05T01:41:05.114Z,5.13
2019-02-05T01:41:41.262Z,5.00
2019-02-05T01:42:17.491Z,4.80
2019-02-05T01:42:53.687Z,4.30
2019-02-05T01:43:29.842Z,5.83
2019-02-05T01:44:06.448Z,4.77
2019-02-05T01:44:42.617Z,5.33
2019-02-05T01:45:20.281Z,4.60
2019-02-05T01:45:56.621Z,4.63
2019-02-05T01:46:32.944Z,4.73
2019-02-05T01:47:09.123Z,5.43
2019-02-05T01:47:45.349Z,5.00
2019-02-05T01:48:21.723Z,5.20
2019-02-05T01:48:57.912Z,5.40
2019-02-05T01:49:33.988Z,5.30
2019-02-05T01:50:10.670Z,5.30
2019-02-05T01:50:46.962Z,5.67
2019-02-05T01:51:23.046Z,4.80
2019-02-05T01:51:59.446Z,5.07
2019-02-05T01:52:35.559Z,4.70
2019-02-05T01:53:11.701Z,4.43
2019-02-05T01:53:47.972Z,4.47
2019-02-05T01:54:23.997Z,4.67
2019-02-05T01:55:00.324Z,5.10
2019-02-05T01:55:36.354Z,5.00
2019-02-05T01:56:12.627Z,4.93
2019-02-05T01:56:48.880Z,4.80
2019-02-05T01:57:24.998Z,4.80
2019-02-05T01:58:01.278Z,4.87
2019-02-05T01:58:37.532Z,4.10
2019-02-05T01:59:13.985Z,4.40
2019-02-05T01:59:50.035Z,5.27
2019-02-05T02:00:30.791Z,5.33
2019-02-05T02:01:07.214Z,4.60
2019-02-05T02:01:43.440Z,5.20
2019-02-05T02:02:19.567Z,5.10
2019-02-05T02:02:55.599Z,5.13
2019-02-05T02:03:31.864Z,4.70
2019-02-05T02:04:08.081Z,5.43
2019-02-05T02:04:44.348Z,5.50
2019-02-05T02:05:20.589Z,5.30
2019-02-05T02:05:56.935Z,6.03
2019-02-05T02:06:33.144Z,5.40
2019-02-05T02:07:09.491Z,4.93
2019-02-05T02:07:45.532Z,4.13
2019-02-05T02:08:22.139Z,5.17
2019-02-05T02:08:58.280Z,4.30
2019-02-05T02:09:34.415Z,5.17
2019-02-05T02:10:12.413Z,4.67
2019-02-05T02:10:48.502Z,4.53
2019-02-05T02:11:24.798Z,5.10
2019-02-05T02:12:00.931Z,4.43
2019-02-05T02:12:37.065Z,4.77
2019-02-05T02:13:13.136Z,5.53
2019-02-05T02:13:49.304Z,4.30
2019-02-05T02:14:25.543Z,4.87
2019-02-05T02:15:01.763Z,4.40
2019-02-05T02:15:38.033Z,4.37
2019-02-05T02:16:14.167Z,3.83
2019-02-05T02:16:50.419Z,5.40
2019-02-05T02:17:26.558Z,5.57
2019-02-05T02:18:02.856Z,4.57
2019-02-05T02:18:38.988Z,4.80
2019-02-05T02:19:15.044Z,4.60
2019-02-05T02:19:51.325Z,4.80
2019-02-05T02:20:27.578Z,5.40
2019-02-05T02:21:03.963Z,5.20
2019-02-05T02:21:40.094Z,5.27
2019-02-05T02:22:16.282Z,5.77
2019-02-05T02:22:52.427Z,4.07
2019-02-05T02:23:28.684Z,5.60
2019-02-05T02:24:05.036Z,4.70
2019-02-05T02:24:41.086Z,4.60
2019-02-05T02:25:17.352Z,4.40
2019-02-05T02:25:53.609Z,4.20
2019-02-05T02:26:29.904Z,4.57
2019-02-05T02:27:06.135Z,4.17
2019-02-05T02:27:42.182Z,5.43
2019-02-05T02:28:18.243Z,5.73
2019-02-05T02:28:54.333Z,4.43
2019-02-05T02:29:30.419Z,4.60
2019-02-05T02:30:08.280Z,5.63
2019-02-05T02:30:45.824Z,4.97
2019-02-05T02:31:22.260Z,4.47
2019-02-05T02:31:58.368Z,4.30
2019-02-05T02:32:34.773Z,4.00
2019-02-05T02:33:10.905Z,4.57
2019-02-05T02:33:46.993Z,4.27
2019-02-05T02:34:23.258Z,4.30
2019-02-05T02:34:59.531Z,4.87
2019-02-05T02:35:35.879Z,5.30
2019-02-05T02:36:12.015Z,4.80
2019-02-05T02:36:48.267Z,5.70
2019-02-05T02:37:24.416Z,4.93
2019-02-05T02:38:00.651Z,5.60
2019-02-05T02:38:37.118Z,5.27
2019-02-05T02:39:13.250Z,4.40
2019-02-05T02:39:49.414Z,4.93
2019-02-05T02:40:25.516Z,5.53
2019-02-05T02:41:01.678Z,4.60
2019-02-05T02:41:37.872Z,5.50
2019-02-05T02:42:14.017Z,6.37
2019-02-05T02:42:51.083Z,4.73
2019-02-05T02:43:27.408Z,4.80
2019-02-05T02:44:03.772Z,5.77
2019-02-05T02:44:39.866Z,5.33
2019-02-05T02:45:16.170Z,4.80
2019-02-05T02:45:52.287Z,5.13
2019-02-05T02:46:28.532Z,5.73
2019-02-05T02:47:04.564Z,4.90
2019-02-05T02:47:40.756Z,4.83
2019-02-05T02:48:16.885Z,4.30
2019-02-05T02:48:53.093Z,4.10
2019-02-05T02:49:29.322Z,5.30
2019-02-05T02:50:06.219Z,5.63
2019-02-05T02:50:42.583Z,5.67
2019-02-05T02:51:18.750Z,5.33
2019-02-05T02:51:54.795Z,4.57
2019-02-05T02:52:30.955Z,4.70
2019-02-05T02:53:07.183Z,4.70
2019-02-05T02:53:43.355Z,3.87
2019-02-05T02:54:19.721Z,3.80
2019-02-05T02:54:55.943Z,4.20
2019-02-05T02:55:32.585Z,4.93
2019-02-05T02:56:08.716Z,4.60
2019-02-05T02:56:44.843Z,5.27
2019-02-05T02:57:20.959Z,4.43
2019-02-05T02:57:57.202Z,3.70
2019-02-05T02:58:33.359Z,4.70
2019-02-05T02:59:09.621Z,4.47
2019-02-05T02:59:45.822Z,3.70
2019-02-05T03:00:22.512Z,3.63
2019-02-05T03:00:58.766Z,4.70
2019-02-05T03:01:35.003Z,3.90
2019-02-05T03:02:11.074Z,4.27
2019-02-05T03:02:47.517Z,4.27
2019-02-05T03:03:23.780Z,4.10
2019-02-05T03:03:59.801Z,5.10
2019-02-05T03:04:35.912Z,4.27
2019-02-05T03:05:13.941Z,4.53
2019-02-05T03:05:50.074Z,4.00
2019-02-05T03:06:26.132Z,4.10
2019-02-05T03:07:02.545Z,4.57
2019-02-05T03:07:38.637Z,4.10
2019-02-05T03:08:15.251Z,4.13
2019-02-05T03:08:51.364Z,3.90
2019-02-05T03:09:27.575Z,4.07
2019-02-05T03:10:03.805Z,3.90
2019-02-05T03:10:40.116Z,4.70
2019-02-05T03:11:16.247Z,3.90
2019-02-05T03:11:52.465Z,3.83
2019-02-05T03:12:28.716Z,3.97
2019-02-05T03:13:04.897Z,3.90
2019-02-05T03:13:41.137Z,3.47
2019-02-05T03:14:17.240Z,3.90
2019-02-05T03:14:53.278Z,4.30
2019-02-05T03:15:29.638Z,4.80
2019-02-05T03:16:06.114Z,3.70
2019-02-05T03:16:42.374Z,4.17
2019-02-05T03:17:18.532Z,5.90
2019-02-05T03:17:54.699Z,4.90
2019-02-05T03:18:30.921Z,4.37
2019-02-05T03:19:07.209Z,5.07
2019-02-05T03:19:43.436Z,4.50
2019-02-05T03:20:19.845Z,4.10
2019-02-05T03:20:56.011Z,4.30
2019-02-05T03:21:32.138Z,3.97
2019-02-05T03:22:08.608Z,4.03
2019-02-05T03:22:45.718Z,5.13
2019-02-05T03:23:22.522Z,4.07
2019-02-05T03:23:58.698Z,4.60
2019-02-05T03:24:34.950Z,3.97
2019-02-05T03:25:12.775Z,3.67
2019-02-05T03:25:48.951Z,4.03
2019-02-05T03:26:25.105Z,3.93
2019-02-05T03:27:01.380Z,3.40
2019-02-05T03:27:37.604Z,3.23
2019-02-05T03:28:13.654Z,3.80
2019-02-05T03:28:49.724Z,3.73
2019-02-05T03:29:25.849Z,3.80
2019-02-05T03:30:02.121Z,4.30
2019-02-05T03:30:38.183Z,3.37
2019-02-05T03:31:14.321Z,3.93
2019-02-05T03:31:50.352Z,3.17
2019-02-05T03:32:26.483Z,3.40
2019-02-05T03:33:02.629Z,4.00
2019-02-05T03:33:38.720Z,3.83
2019-02-05T03:34:14.900Z,4.10
2019-02-05T03:34:51.136Z,3.30
2019-02-05T03:35:27.377Z,3.80
2019-02-05T03:36:03.811Z,3.50
2019-02-05T03:36:39.993Z,3.57
2019-02-05T03:37:16.576Z,3.50
2019-02-05T03:37:53.122Z,3.20
2019-02-05T03:38:29.299Z,3.60
2019-02-05T03:39:06.908Z,3.43
2019-02-05T03:39:43.026Z,3.60
2019-02-05T03:41:11.124Z,3.80
2019-02-05T03:41:47.345Z,3.63
2019-02-05T03:42:23.410Z,2.97
2019-02-05T03:42:59.821Z,4.07
2019-02-05T03:43:37.939Z,3.43
2019-02-05T03:44:14.345Z,3.63
2019-02-05T03:44:50.637Z,3.60
2019-02-05T03:45:27.440Z,3.03
2019-02-05T03:46:03.900Z,4.07
2019-02-05T03:46:40.018Z,3.33
2019-02-05T03:47:16.231Z,3.17
2019-02-05T03:47:53.452Z,3.63
2019-02-05T03:48:29.877Z,3.40
2019-02-05T03:49:06.038Z,3.50
2019-02-05T03:49:42.428Z,3.93
2019-02-05T03:50:18.570Z,3.77
2019-02-05T03:50:58.512Z,3.03
2019-02-05T03:52:15.051Z,3.03
2019-02-05T03:52:56.256Z,3.10
2019-02-05T03:53:33.966Z,2.80
2019-02-05T03:54:28.385Z,3.43
2019-02-05T03:55:38.588Z,3.57
2019-02-05T03:57:06.689Z,3.77
2019-02-05T03:58:02.626Z,2.67
2019-02-05T03:59:03.919Z,3.07
2019-02-05T03:59:54.541Z,3.60
2019-02-05T04:00:44.497Z,3.40
2019-02-05T04:01:46.268Z,3.47
2019-02-05T04:02:53.465Z,3.47
2019-02-05T04:04:04.956Z,3.27
2019-02-05T04:05:32.354Z,3.00
2019-02-05T04:06:28.759Z,3.43
2019-02-05T04:07:18.237Z,3.63
2019-02-05T04:08:28.787Z,3.73
2019-02-05T04:09:36.777Z,3.60
2019-02-05T04:10:41.927Z,4.50
2019-02-05T04:11:39.914Z,4.73
2019-02-05T04:12:36.396Z,4.20
2019-02-05T04:13:49.195Z,3.83
2019-02-05T04:15:05.703Z,3.27
2019-02-05T04:15:56.011Z,2.63
2019-02-05T04:17:09.545Z,3.27
2019-02-05T04:18:28.296Z,3.10
2019-02-05T04:19:39.846Z,3.33
2019-02-05T04:20:56.200Z,3.20
2019-02-05T04:22:01.312Z,3.60
2019-02-05T04:23:05.085Z,4.17
2019-02-05T04:24:16.739Z,3.53
2019-02-05T04:25:05.747Z,4.30
2019-02-05T04:26:26.334Z,3.87
2019-02-05T04:28:01.085Z,4.53
2019-02-05T04:29:15.423Z,3.40
2019-02-05T04:30:41.280Z,3.30
2019-02-05T04:32:01.859Z,3.70
2019-02-05T04:33:17.642Z,3.70
2019-02-05T04:34:39.456Z,3.60
2019-02-05T04:35:50.976Z,4.17
2019-02-05T04:36:44.731Z,3.83
2019-02-05T04:38:28.149Z,4.30
2019-02-05T04:39:45.092Z,4.23
2019-02-05T04:40:45.108Z,3.50
2019-02-05T04:41:46.279Z,3.50
2019-02-05T04:43:23.328Z,4.13
2019-02-05T04:44:41.253Z,4.07
2019-02-05T04:45:49.354Z,4.50
2019-02-05T04:47:08.298Z,3.47
2019-02-05T04:48:04.675Z,3.40
2019-02-05T04:49:06.210Z,3.43
2019-02-05T04:50:18.023Z,4.03
2019-02-05T04:51:20.618Z,3.43
2019-02-05T04:52:28.710Z,3.77
2019-02-05T04:53:28.466Z,3.27
2019-02-05T04:55:11.202Z,3.30
2019-02-05T04:56:18.336Z,3.10
2019-02-05T04:57:40.340Z,4.30
2019-02-05T04:59:00.698Z,3.43
2019-02-05T05:00:00.495Z,4.00
2019-02-05T05:01:07.978Z,4.03
2019-02-05T05:02:19.761Z,3.80
2019-02-05T05:03:24.571Z,3.77
2019-02-05T05:04:22.348Z,4.23
2019-02-05T05:05:45.583Z,4.10
2019-02-05T05:07:19.716Z,3.50
2019-02-05T05:08:32.321Z,3.23
2019-02-05T05:09:16.761Z,4.47
2019-02-05T05:10:02.496Z,3.67
2019-02-05T05:10:38.612Z,3.77
2019-02-05T05:11:14.911Z,4.60
2019-02-05T05:11:51.024Z,3.43
2019-02-05T05:12:27.879Z,3.70
2019-02-05T05:13:04.235Z,4.30
2019-02-05T05:13:40.320Z,4.57
2019-02-05T05:14:16.531Z,4.83
2019-02-05T05:14:52.611Z,4.00
2019-02-05T05:15:28.773Z,5.33
2019-02-05T05:16:05.101Z,4.30
2019-02-05T05:16:41.392Z,4.30
2019-02-05T05:17:17.540Z,4.40
2019-02-05T05:17:53.647Z,4.93
2019-02-05T05:18:30.018Z,4.50
2019-02-05T05:19:06.504Z,4.80
2019-02-05T05:19:43.081Z,4.60
2019-02-05T05:20:19.282Z,5.00
2019-02-05T05:20:55.759Z,4.43
2019-02-05T05:21:31.940Z,4.70
2019-02-05T05:22:08.400Z,4.90
2019-02-05T05:22:45.083Z,5.30
2019-02-05T05:23:21.429Z,4.37
2019-02-05T05:23:57.777Z,5.53
2019-02-05T05:24:34.133Z,4.37
2019-02-05T05:25:11.635Z,5.00
2019-02-05T05:25:48.071Z,4.43
2019-02-05T05:26:24.250Z,5.47
2019-02-05T05:27:00.636Z,5.20
2019-02-05T05:27:36.848Z,5.10
2019-02-05T05:28:13.128Z,5.93
2019-02-05T05:28:49.302Z,5.57
2019-02-05T05:29:25.586Z,5.03
2019-02-05T05:30:01.730Z,5.47
2019-02-05T05:30:37.783Z,4.53
2019-02-05T05:31:14.018Z,5.33
2019-02-05T05:31:50.744Z,5.43
2019-02-05T05:32:27.408Z,5.10
2019-02-05T05:33:03.483Z,4.87
2019-02-05T05:33:39.845Z,5.20
2019-02-05T05:34:15.957Z,6.05
2019-02-05T05:34:52.237Z,5.17
2019-02-05T05:35:40.218Z,5.40
2019-02-05T05:36:06.430Z,5.07
2019-02-05T05:36:50.379Z,5.17
2019-02-05T05:37:26.562Z,5.03
2019-02-05T05:38:03.235Z,4.30
2019-02-05T05:38:39.393Z,4.90
2019-02-05T05:39:15.795Z,5.27
2019-02-05T05:39:52.052Z,4.13
2019-02-05T05:40:28.205Z,5.40
2019-02-05T05:41:04.635Z,5.90
2019-02-05T05:41:41.286Z,5.70
2019-02-05T05:42:17.418Z,4.50
2019-02-05T05:42:54.107Z,5.90
2019-02-05T05:43:30.181Z,5.10
2019-02-05T05:44:09.495Z,5.70
2019-02-05T05:44:44.236Z,6.13
2019-02-05T05:45:20.375Z,5.03
2019-02-05T05:45:56.629Z,5.83
2019-02-05T05:46:32.700Z,5.20
2019-02-05T05:47:08.936Z,5.40
2019-02-05T05:47:45.028Z,6.33
2019-02-05T05:48:21.097Z,5.97
2019-02-05T05:48:57.251Z,5.57
2019-02-05T05:49:33.356Z,5.00
2019-02-05T05:50:11.731Z,5.70
2019-02-05T05:50:47.862Z,5.03
2019-02-05T05:51:24.108Z,6.20
2019-02-05T05:52:00.271Z,5.47
2019-02-05T05:52:36.419Z,4.63
2019-02-05T05:53:15.307Z,5.33
2019-02-05T05:53:51.651Z,5.63
2019-02-05T05:54:28.017Z,5.90
2019-02-05T05:55:04.293Z,6.13
2019-02-05T05:55:40.423Z,5.70
2019-02-05T05:56:16.715Z,5.80
2019-02-05T05:56:52.789Z,4.93
2019-02-05T05:57:28.950Z,5.40
2019-02-05T05:58:05.061Z,4.70
2019-02-05T05:58:41.112Z,5.27
2019-02-05T05:59:17.247Z,5.53
2019-02-05T05:59:53.433Z,5.00
2019-02-05T06:00:29.791Z,5.93
2019-02-05T06:01:05.868Z,5.10
2019-02-05T06:01:41.985Z,5.80
2019-02-05T06:02:20.209Z,5.50
2019-02-05T06:02:56.352Z,6.40
2019-02-05T06:03:32.618Z,5.30
2019-02-05T06:04:08.906Z,5.73
2019-02-05T06:04:45.120Z,5.10
2019-02-05T06:05:21.985Z,5.37
2019-02-05T06:05:58.524Z,5.70
2019-02-05T06:06:34.739Z,5.70
2019-02-05T06:07:11.225Z,5.60
2019-02-05T06:07:47.568Z,5.60
2019-02-05T06:08:23.632Z,6.03
2019-02-05T06:08:59.754Z,4.80
2019-02-05T06:09:35.915Z,5.17
2019-02-05T06:10:12.599Z,5.30
2019-02-05T06:10:48.749Z,5.70
2019-02-05T06:11:24.952Z,5.53
2019-02-05T06:12:01.258Z,6.17
2019-02-05T06:12:37.403Z,5.80
2019-02-05T06:13:13.515Z,5.67
2019-02-05T06:13:49.614Z,4.70
2019-02-05T06:14:25.706Z,5.10
2019-02-05T06:15:01.915Z,5.80
2019-02-05T06:15:38.221Z,4.80
2019-02-05T06:16:14.395Z,6.00
2019-02-05T06:16:50.478Z,5.33
2019-02-05T06:17:26.533Z,5.40
2019-02-05T06:18:02.634Z,6.30
2019-02-05T06:18:40.553Z,5.87
2019-02-05T06:19:16.566Z,5.57
2019-02-05T06:19:52.851Z,5.57
2019-02-05T06:20:28.910Z,5.00
2019-02-05T06:21:05.104Z,5.93
2019-02-05T06:21:41.362Z,5.53
2019-02-05T06:22:17.527Z,5.20
2019-02-05T06:22:53.706Z,5.70
2019-02-05T06:23:29.895Z,5.60
2019-02-05T06:24:07.690Z,6.53
2019-02-05T06:24:43.816Z,5.23
2019-02-05T06:25:20.112Z,5.03
2019-02-05T06:25:56.352Z,6.20
2019-02-05T06:26:32.413Z,5.00
2019-02-05T06:27:08.469Z,5.27
2019-02-05T06:27:44.722Z,5.73
2019-02-05T06:28:20.976Z,6.00
2019-02-05T06:28:57.251Z,5.43
2019-02-05T06:29:33.457Z,5.07
2019-02-05T06:30:10.937Z,5.30
2019-02-05T06:30:46.987Z,5.77
2019-02-05T06:31:23.449Z,5.20
2019-02-05T06:31:59.610Z,5.80
2019-02-05T06:32:35.798Z,5.80
2019-02-05T06:33:12.078Z,5.70
2019-02-05T06:33:48.168Z,5.73
2019-02-05T06:34:24.367Z,5.50
2019-02-05T06:35:00.634Z,5.00
2019-02-05T06:35:36.878Z,5.77
2019-02-05T06:36:13.147Z,5.87
2019-02-05T06:36:49.290Z,5.30
2019-02-05T06:37:25.439Z,5.20
2019-02-05T06:38:01.678Z,5.90
2019-02-05T06:38:37.862Z,4.30
2019-02-05T06:39:13.969Z,5.47
2019-02-05T06:39:50.262Z,5.50
2019-02-05T06:40:26.684Z,5.20
2019-02-05T06:41:02.828Z,5.53
2019-02-05T06:41:39.432Z,5.40
2019-02-05T06:42:15.580Z,5.17
2019-02-05T06:42:51.697Z,5.10
2019-02-05T06:43:27.829Z,5.97
2019-02-05T06:44:04.139Z,6.00
2019-02-05T06:44:40.208Z,5.37
2019-02-05T06:45:17.025Z,6.17
2019-02-05T06:45:53.191Z,6.03
2019-02-05T06:46:29.342Z,5.50
2019-02-05T06:47:05.477Z,6.00
2019-02-05T06:47:41.902Z,5.30
2019-02-05T06:48:18.105Z,5.00
2019-02-05T06:48:54.290Z,6.67
2019-02-05T06:49:30.394Z,5.83
2019-02-05T06:50:07.091Z,5.50
2019-02-05T06:50:43.179Z,6.30
2019-02-05T06:51:19.394Z,5.47
2019-02-05T06:51:55.662Z,5.63
2019-02-05T06:52:31.960Z,5.73
2019-02-05T06:53:08.054Z,6.87
2019-02-05T06:53:44.337Z,6.03
2019-02-05T06:54:20.633Z,6.60
2019-02-05T06:54:56.768Z,5.63
2019-02-05T06:55:32.889Z,5.13
2019-02-05T06:56:09.090Z,6.15
2019-02-05T06:56:45.419Z,5.47
2019-02-05T06:57:21.572Z,5.90
2019-02-05T06:57:57.877Z,6.57
2019-02-05T06:58:45.749Z,6.77
2019-02-05T06:59:11.748Z,5.83
2019-02-05T06:59:48.099Z,5.33
2019-02-05T07:00:24.519Z,5.97
2019-02-05T07:01:00.739Z,5.27
2019-02-05T07:01:36.990Z,6.80
2019-02-05T07:02:13.378Z,6.37
2019-02-05T07:02:49.590Z,6.53
2019-02-05T07:03:25.718Z,5.73
2019-02-05T07:04:01.859Z,5.87
2019-02-05T07:04:37.984Z,6.40
2019-02-05T07:05:14.363Z,6.27
2019-02-05T07:05:50.590Z,6.03
2019-02-05T07:06:26.779Z,6.03
2019-02-05T07:07:02.888Z,5.73
2019-02-05T07:07:39.007Z,5.90
2019-02-05T07:08:15.256Z,6.93
2019-02-05T07:08:51.487Z,6.57
2019-02-05T07:09:28.087Z,6.47
2019-02-05T07:10:04.306Z,5.97
2019-02-05T07:10:40.686Z,6.70
2019-02-05T07:11:16.883Z,5.40
2019-02-05T07:11:53.086Z,6.20
2019-02-05T07:12:29.166Z,6.10
2019-02-05T07:13:05.351Z,6.30
2019-02-05T07:13:41.490Z,6.43
2019-02-05T07:14:17.786Z,6.40
2019-02-05T07:14:54.021Z,5.80
2019-02-05T07:15:30.124Z,6.10
2019-02-05T07:16:06.412Z,6.30
2019-02-05T07:16:42.640Z,6.37
2019-02-05T07:17:18.925Z,6.23
2019-02-05T07:17:55.081Z,6.33
2019-02-05T07:18:31.333Z,6.63
2019-02-05T07:19:07.655Z,6.47
2019-02-05T07:19:43.923Z,5.80
2019-02-05T07:20:20.250Z,5.87
2019-02-05T07:20:56.341Z,6.00
2019-02-05T07:21:32.450Z,5.60
2019-02-05T07:22:09.050Z,6.23
2019-02-05T07:22:45.166Z,6.03
2019-02-05T07:23:21.774Z,6.33
2019-02-05T07:23:58.019Z,7.30
2019-02-05T07:24:34.253Z,5.53
2019-02-05T07:25:12.584Z,5.40
2019-02-05T07:25:48.751Z,6.37
2019-02-05T07:26:24.997Z,6.10
2019-02-05T07:27:01.181Z,6.30
2019-02-05T07:27:37.387Z,6.60
2019-02-05T07:28:13.540Z,6.50
2019-02-05T07:28:58.174Z,6.73
2019-02-05T07:29:27.782Z,5.97
2019-02-05T07:30:03.998Z,6.93
2019-02-05T07:30:40.393Z,7.43
2019-02-05T07:31:16.580Z,6.70
2019-02-05T07:31:52.888Z,6.50
2019-02-05T07:32:29.182Z,5.93
2019-02-05T07:33:05.278Z,6.80
2019-02-05T07:33:41.422Z,5.90
2019-02-05T07:34:17.458Z,6.73
2019-02-05T07:34:53.747Z,5.43
2019-02-05T07:35:30.125Z,6.43
2019-02-05T07:36:06.768Z,6.27
2019-02-05T07:36:42.970Z,5.97
2019-02-05T07:37:19.354Z,6.27
2019-02-05T07:37:55.660Z,7.00
2019-02-05T07:38:31.802Z,6.30
2019-02-05T07:39:10.374Z,5.70
2019-02-05T07:39:46.564Z,5.13
2019-02-05T07:40:23.598Z,5.80
2019-02-05T07:40:59.748Z,5.47
2019-02-05T07:41:35.845Z,5.00
2019-02-05T07:42:12.190Z,5.23
2019-02-05T07:42:48.231Z,5.13
2019-02-05T07:43:24.408Z,5.83
2019-02-05T07:44:00.502Z,5.63
2019-02-05T07:44:39.915Z,5.93
2019-02-05T07:45:16.816Z,5.30
2019-02-05T07:45:53.156Z,5.67
2019-02-05T07:46:29.285Z,5.80
2019-02-05T07:47:05.398Z,4.70
2019-02-05T07:47:41.825Z,5.57
2019-02-05T07:48:18.082Z,6.07
2019-02-05T07:48:54.755Z,6.30
2019-02-05T07:49:30.918Z,6.83
2019-02-05T07:50:09.767Z,5.30
2019-02-05T07:50:46.135Z,6.30
2019-02-05T07:51:22.301Z,6.83
2019-02-05T07:51:58.533Z,6.60
2019-02-05T07:52:34.793Z,6.23
2019-02-05T07:53:11.106Z,5.83
2019-02-05T07:53:47.334Z,5.07
2019-02-05T07:54:23.467Z,6.40
2019-02-05T07:54:59.544Z,6.30
2019-02-05T07:55:35.655Z,5.80
2019-02-05T07:56:12.949Z,5.80
2019-02-05T07:56:49.218Z,6.43
2019-02-05T07:57:25.419Z,6.07
2019-02-05T07:58:01.667Z,5.40
2019-02-05T07:58:37.862Z,6.70
2019-02-05T07:59:14.011Z,5.90
2019-02-05T07:59:50.123Z,6.90
2019-02-05T08:00:28.232Z,7.20
2019-02-05T08:01:04.617Z,6.20
2019-02-05T08:01:41.055Z,6.73
2019-02-05T08:02:17.061Z,6.30
2019-02-05T08:02:53.482Z,6.10
2019-02-05T08:03:29.655Z,6.43
2019-02-05T08:04:05.798Z,6.03
2019-02-05T08:04:41.867Z,6.77
2019-02-05T08:05:20.267Z,6.10
2019-02-05T08:05:56.382Z,6.33
2019-02-05T08:06:32.531Z,6.33
2019-02-05T08:07:08.764Z,6.40
2019-02-05T08:07:44.934Z,6.20
2019-02-05T08:08:21.082Z,6.43
2019-02-05T08:08:57.169Z,6.17
2019-02-05T08:09:33.217Z,7.00
2019-02-05T08:10:09.772Z,7.37
2019-02-05T08:10:45.920Z,6.60
2019-02-05T08:11:22.127Z,7.87
2019-02-05T08:11:58.409Z,6.43
2019-02-05T08:12:34.612Z,7.00
2019-02-05T08:13:10.929Z,7.27
2019-02-05T08:13:47.116Z,6.83
2019-02-05T08:14:23.188Z,6.70
2019-02-05T08:14:59.376Z,7.30
2019-02-05T08:15:36.052Z,6.70
2019-02-05T08:16:12.187Z,6.40
2019-02-05T08:16:48.344Z,5.90
2019-02-05T08:17:24.618Z,6.43
2019-02-05T08:18:01.216Z,6.77
2019-02-05T08:18:37.526Z,6.20
2019-02-05T08:19:13.838Z,6.40
2019-02-05T08:19:50.052Z,7.23
2019-02-05T08:20:26.612Z,5.20
2019-02-05T08:21:02.739Z,6.97
2019-02-05T08:21:38.802Z,6.20
2019-02-05T08:22:14.984Z,6.40
2019-02-05T08:22:51.133Z,6.87
2019-02-05T08:23:27.458Z,6.13
2019-02-05T08:24:03.646Z,6.07
2019-02-05T08:24:39.802Z,6.17
2019-02-05T08:25:16.358Z,7.00
2019-02-05T08:25:52.569Z,7.00
2019-02-05T08:26:28.849Z,6.53
2019-02-05T08:27:04.977Z,6.17
2019-02-05T08:27:41.115Z,5.83
2019-02-05T08:28:17.469Z,6.20
2019-02-05T08:28:53.721Z,5.70
2019-02-05T08:29:30.006Z,5.97
2019-02-05T08:30:08.278Z,5.83
2019-02-05T08:30:48.393Z,5.90
2019-02-05T08:31:24.637Z,6.60
2019-02-05T08:32:00.827Z,5.75
2019-02-05T08:32:36.970Z,6.57
2019-02-05T08:33:13.260Z,6.70
2019-02-05T08:33:49.537Z,5.90
2019-02-05T08:34:25.801Z,6.17
2019-02-05T08:35:02.054Z,5.83
2019-02-05T08:35:38.206Z,5.37
2019-02-05T08:36:14.562Z,6.47
2019-02-05T08:36:50.864Z,6.37
2019-02-05T08:37:27.095Z,5.30
2019-02-05T08:38:03.468Z,6.40
2019-02-05T08:38:39.673Z,6.07
2019-02-05T08:39:17.985Z,5.50
2019-02-05T08:39:53.803Z,5.60
2019-02-05T08:40:30.015Z,6.10
2019-02-05T08:41:06.172Z,5.83
2019-02-05T08:41:42.446Z,5.90
2019-02-05T08:42:19.006Z,5.97
2019-02-05T08:42:55.225Z,6.40